sensor_id;sensor_type;location;lat;lon;timestamp;temperature;humidity
25871;DHT22;13689;48.590;7.752;2024-01-15T00:00:39;-0.40;91.30
25871;DHT22;13689;48.590;7.752;2024-01-15T00:03:04;-0.40;91.30
25871;DHT22;13689;48.590;7.752;2024-01-15T00:05:30;-0.40;91.30
25871;DHT22;13689;48.590;7.752;2024-01-15T00:07:56;-0.30;91.30
25871;DHT22;13689;48.590;7.752;2024-01-15T00:10:21;-0.30;91.30
25871;DHT22;13689;48.590;7.752;2024-01-15T00:12:47;-0.30;91.30
25871;DHT22;13689;48.590;7.752;2024-01-15T00:15:13;-0.30;91.30
25871;DHT22;13689;48.590;7.752;2024-01-15T00:17:38;-0.30;91.30
25871;DHT22;13689;48.590;7.752;2024-01-15T00:20:05;-0.30;91.30
25871;DHT22;13689;48.590;7.752;2024-01-15T00:22:30;-0.30;91.30
25871;DHT22;13689;48.590;7.752;2024-01-15T00:24:57;-0.30;91.30
25871;DHT22;13689;48.590;7.752;2024-01-15T00:27:22;-0.20;91.30
25871;DHT22;13689;48.590;7.752;2024-01-15T00:29:49;-0.20;91.30
25871;DHT22;13689;48.590;7.752;2024-01-15T00:32:16;-0.20;91.30
25871;DHT22;13689;48.590;7.752;2024-01-15T00:34:41;-0.20;91.40
25871;DHT22;13689;48.590;7.752;2024-01-15T00:37:07;-0.20;91.30
25871;DHT22;13689;48.590;7.752;2024-01-15T00:39:33;-0.20;91.40
25871;DHT22;13689;48.590;7.752;2024-01-15T00:41:58;-0.20;91.40
25871;DHT22;13689;48.590;7.752;2024-01-15T00:44:24;-0.20;91.40
25871;DHT22;13689;48.590;7.752;2024-01-15T00:46:50;-0.20;91.40
25871;DHT22;13689;48.590;7.752;2024-01-15T00:49:15;-0.20;91.40
25871;DHT22;13689;48.590;7.752;2024-01-15T00:51:41;-0.20;91.40
25871;DHT22;13689;48.590;7.752;2024-01-15T00:54:07;-0.20;91.40
25871;DHT22;13689;48.590;7.752;2024-01-15T00:56:33;-0.20;91.40
25871;DHT22;13689;48.590;7.752;2024-01-15T00:58:58;-0.20;91.40
25871;DHT22;13689;48.590;7.752;2024-01-15T01:01:24;-0.30;91.40
25871;DHT22;13689;48.590;7.752;2024-01-15T01:03:49;-0.30;91.40
25871;DHT22;13689;48.590;7.752;2024-01-15T01:06:15;-0.30;91.40
25871;DHT22;13689;48.590;7.752;2024-01-15T01:08:40;-0.30;91.40
25871;DHT22;13689;48.590;7.752;2024-01-15T01:11:06;-0.30;91.50
25871;DHT22;13689;48.590;7.752;2024-01-15T01:13:32;-0.30;91.50
25871;DHT22;13689;48.590;7.752;2024-01-15T01:15:58;-0.30;91.50
25871;DHT22;13689;48.590;7.752;2024-01-15T01:18:23;-0.30;91.50
25871;DHT22;13689;48.590;7.752;2024-01-15T01:20:49;-0.20;91.50
25871;DHT22;13689;48.590;7.752;2024-01-15T01:23:15;-0.20;91.50
25871;DHT22;13689;48.590;7.752;2024-01-15T01:25:40;-0.20;91.50
25871;DHT22;13689;48.590;7.752;2024-01-15T01:28:06;-0.30;91.40
25871;DHT22;13689;48.590;7.752;2024-01-15T01:30:32;-0.30;91.50
25871;DHT22;13689;48.590;7.752;2024-01-15T01:32:57;-0.20;91.50
25871;DHT22;13689;48.590;7.752;2024-01-15T01:35:23;-0.20;91.50
25871;DHT22;13689;48.590;7.752;2024-01-15T01:37:48;-0.20;91.50
25871;DHT22;13689;48.590;7.752;2024-01-15T01:40:14;-0.20;91.50
25871;DHT22;13689;48.590;7.752;2024-01-15T01:42:40;-0.20;91.50
25871;DHT22;13689;48.590;7.752;2024-01-15T01:45:06;-0.20;91.50
25871;DHT22;13689;48.590;7.752;2024-01-15T01:47:32;-0.20;91.50
25871;DHT22;13689;48.590;7.752;2024-01-15T01:49:57;-0.10;91.60
25871;DHT22;13689;48.590;7.752;2024-01-15T01:52:23;-0.10;91.50
25871;DHT22;13689;48.590;7.752;2024-01-15T01:54:49;-0.10;91.60
25871;DHT22;13689;48.590;7.752;2024-01-15T01:57:16;-0.10;91.60
25871;DHT22;13689;48.590;7.752;2024-01-15T01:59:43;-0.10;91.50
25871;DHT22;13689;48.590;7.752;2024-01-15T02:02:09;-0.10;91.50
25871;DHT22;13689;48.590;7.752;2024-01-15T02:04:36;-0.10;91.50
25871;DHT22;13689;48.590;7.752;2024-01-15T02:07:02;-0.10;91.50
25871;DHT22;13689;48.590;7.752;2024-01-15T02:09:28;0.00;91.50
25871;DHT22;13689;48.590;7.752;2024-01-15T02:11:53;0.00;91.50
25871;DHT22;13689;48.590;7.752;2024-01-15T02:14:19;0.00;91.50
25871;DHT22;13689;48.590;7.752;2024-01-15T02:16:45;0.00;91.50
25871;DHT22;13689;48.590;7.752;2024-01-15T02:19:17;0.00;91.60
25871;DHT22;13689;48.590;7.752;2024-01-15T02:21:43;0.00;91.60
25871;DHT22;13689;48.590;7.752;2024-01-15T02:24:09;0.00;91.50
25871;DHT22;13689;48.590;7.752;2024-01-15T02:26:34;0.10;91.60
25871;DHT22;13689;48.590;7.752;2024-01-15T02:29:01;0.10;91.60
25871;DHT22;13689;48.590;7.752;2024-01-15T02:31:27;0.00;91.60
25871;DHT22;13689;48.590;7.752;2024-01-15T02:33:53;0.00;91.60
25871;DHT22;13689;48.590;7.752;2024-01-15T02:36:18;0.10;91.60
25871;DHT22;13689;48.590;7.752;2024-01-15T02:38:44;0.10;91.60
25871;DHT22;13689;48.590;7.752;2024-01-15T02:41:09;0.00;91.60
25871;DHT22;13689;48.590;7.752;2024-01-15T02:43:35;0.10;91.60
25871;DHT22;13689;48.590;7.752;2024-01-15T02:46:01;0.10;91.70
25871;DHT22;13689;48.590;7.752;2024-01-15T02:48:26;0.10;91.70
25871;DHT22;13689;48.590;7.752;2024-01-15T02:50:52;0.10;91.70
25871;DHT22;13689;48.590;7.752;2024-01-15T02:53:17;0.10;91.70
25871;DHT22;13689;48.590;7.752;2024-01-15T02:55:43;0.20;91.70
25871;DHT22;13689;48.590;7.752;2024-01-15T02:58:08;0.20;91.70
25871;DHT22;13689;48.590;7.752;2024-01-15T03:00:34;0.20;91.80
25871;DHT22;13689;48.590;7.752;2024-01-15T03:03:00;0.20;91.80
25871;DHT22;13689;48.590;7.752;2024-01-15T03:05:25;0.20;91.70
25871;DHT22;13689;48.590;7.752;2024-01-15T03:07:51;0.20;91.70
25871;DHT22;13689;48.590;7.752;2024-01-15T03:10:16;0.20;91.70
25871;DHT22;13689;48.590;7.752;2024-01-15T03:12:42;0.20;91.70
25871;DHT22;13689;48.590;7.752;2024-01-15T03:15:08;0.10;91.80
25871;DHT22;13689;48.590;7.752;2024-01-15T03:17:33;0.10;91.80
25871;DHT22;13689;48.590;7.752;2024-01-15T03:20:00;0.10;91.80
25871;DHT22;13689;48.590;7.752;2024-01-15T03:22:25;0.10;91.80
25871;DHT22;13689;48.590;7.752;2024-01-15T03:24:52;0.10;91.80
25871;DHT22;13689;48.590;7.752;2024-01-15T03:27:17;0.10;91.80
25871;DHT22;13689;48.590;7.752;2024-01-15T03:29:43;0.10;91.90
25871;DHT22;13689;48.590;7.752;2024-01-15T03:32:09;0.10;91.90
25871;DHT22;13689;48.590;7.752;2024-01-15T03:34:34;0.10;91.90
25871;DHT22;13689;48.590;7.752;2024-01-15T03:37:00;0.10;91.90
25871;DHT22;13689;48.590;7.752;2024-01-15T03:39:25;0.10;91.90
25871;DHT22;13689;48.590;7.752;2024-01-15T03:41:51;0.10;91.90
25871;DHT22;13689;48.590;7.752;2024-01-15T03:44:17;0.10;92.00
25871;DHT22;13689;48.590;7.752;2024-01-15T03:46:42;0.10;92.00
25871;DHT22;13689;48.590;7.752;2024-01-15T03:49:08;0.10;92.00
25871;DHT22;13689;48.590;7.752;2024-01-15T03:51:34;0.20;92.10
25871;DHT22;13689;48.590;7.752;2024-01-15T03:53:59;0.20;92.00
25871;DHT22;13689;48.590;7.752;2024-01-15T03:56:25;0.20;92.00
25871;DHT22;13689;48.590;7.752;2024-01-15T03:58:50;0.20;92.00
25871;DHT22;13689;48.590;7.752;2024-01-15T04:01:19;0.30;92.00
25871;DHT22;13689;48.590;7.752;2024-01-15T04:03:44;0.30;92.00
25871;DHT22;13689;48.590;7.752;2024-01-15T04:06:10;0.30;92.10
25871;DHT22;13689;48.590;7.752;2024-01-15T04:08:35;0.30;92.10
25871;DHT22;13689;48.590;7.752;2024-01-15T04:11:01;0.30;92.00
25871;DHT22;13689;48.590;7.752;2024-01-15T04:13:27;0.30;92.10
25871;DHT22;13689;48.590;7.752;2024-01-15T04:15:53;0.40;92.10
25871;DHT22;13689;48.590;7.752;2024-01-15T04:18:18;0.40;92.10
25871;DHT22;13689;48.590;7.752;2024-01-15T04:20:44;0.40;92.10
25871;DHT22;13689;48.590;7.752;2024-01-15T04:23:10;0.40;92.10
25871;DHT22;13689;48.590;7.752;2024-01-15T04:25:36;0.40;92.10
25871;DHT22;13689;48.590;7.752;2024-01-15T04:28:01;0.40;92.10
25871;DHT22;13689;48.590;7.752;2024-01-15T04:30:27;0.40;92.20
25871;DHT22;13689;48.590;7.752;2024-01-15T04:32:52;0.40;92.10
25871;DHT22;13689;48.590;7.752;2024-01-15T04:35:18;0.40;92.10
25871;DHT22;13689;48.590;7.752;2024-01-15T04:37:43;0.40;92.10
25871;DHT22;13689;48.590;7.752;2024-01-15T04:40:09;0.30;92.10
25871;DHT22;13689;48.590;7.752;2024-01-15T04:42:35;0.30;92.10
25871;DHT22;13689;48.590;7.752;2024-01-15T04:45:01;0.30;92.20
25871;DHT22;13689;48.590;7.752;2024-01-15T04:47:26;0.40;92.20
25871;DHT22;13689;48.590;7.752;2024-01-15T04:49:52;0.30;92.20
25871;DHT22;13689;48.590;7.752;2024-01-15T04:52:17;0.40;92.30
25871;DHT22;13689;48.590;7.752;2024-01-15T04:54:43;0.40;92.20
25871;DHT22;13689;48.590;7.752;2024-01-15T04:57:09;0.40;92.20
25871;DHT22;13689;48.590;7.752;2024-01-15T04:59:34;0.40;92.30
25871;DHT22;13689;48.590;7.752;2024-01-15T05:02:00;0.40;92.20
25871;DHT22;13689;48.590;7.752;2024-01-15T05:04:25;0.40;92.20
25871;DHT22;13689;48.590;7.752;2024-01-15T05:06:51;0.40;92.30
25871;DHT22;13689;48.590;7.752;2024-01-15T05:09:17;0.40;92.30
25871;DHT22;13689;48.590;7.752;2024-01-15T05:11:43;0.40;92.30
25871;DHT22;13689;48.590;7.752;2024-01-15T05:14:09;0.40;92.30
25871;DHT22;13689;48.590;7.752;2024-01-15T05:16:34;0.40;92.30
25871;DHT22;13689;48.590;7.752;2024-01-15T05:19:00;0.40;92.30
25871;DHT22;13689;48.590;7.752;2024-01-15T05:21:25;0.40;92.30
25871;DHT22;13689;48.590;7.752;2024-01-15T05:23:51;0.40;92.30
25871;DHT22;13689;48.590;7.752;2024-01-15T05:26:17;0.40;92.30
25871;DHT22;13689;48.590;7.752;2024-01-15T05:28:42;0.40;92.30
25871;DHT22;13689;48.590;7.752;2024-01-15T05:31:09;0.40;92.40
25871;DHT22;13689;48.590;7.752;2024-01-15T05:33:34;0.40;92.30
25871;DHT22;13689;48.590;7.752;2024-01-15T05:36:00;0.40;92.30
25871;DHT22;13689;48.590;7.752;2024-01-15T05:38:27;0.40;92.30
25871;DHT22;13689;48.590;7.752;2024-01-15T05:40:53;0.40;92.30
25871;DHT22;13689;48.590;7.752;2024-01-15T05:43:18;0.40;92.30
25871;DHT22;13689;48.590;7.752;2024-01-15T05:45:44;0.40;92.40
25871;DHT22;13689;48.590;7.752;2024-01-15T05:48:13;0.40;92.40
25871;DHT22;13689;48.590;7.752;2024-01-15T05:50:38;0.40;92.30
25871;DHT22;13689;48.590;7.752;2024-01-15T05:53:04;0.40;92.40
25871;DHT22;13689;48.590;7.752;2024-01-15T05:55:30;0.40;92.40
25871;DHT22;13689;48.590;7.752;2024-01-15T05:57:56;0.40;92.40
25871;DHT22;13689;48.590;7.752;2024-01-15T06:00:21;0.40;92.30
25871;DHT22;13689;48.590;7.752;2024-01-15T06:02:47;0.40;92.40
25871;DHT22;13689;48.590;7.752;2024-01-15T06:05:13;0.40;92.40
25871;DHT22;13689;48.590;7.752;2024-01-15T06:07:38;0.40;92.30
25871;DHT22;13689;48.590;7.752;2024-01-15T06:10:04;0.40;92.40
25871;DHT22;13689;48.590;7.752;2024-01-15T06:12:30;0.40;92.40
25871;DHT22;13689;48.590;7.752;2024-01-15T06:14:57;0.40;92.40
25871;DHT22;13689;48.590;7.752;2024-01-15T06:17:23;0.40;92.40
25871;DHT22;13689;48.590;7.752;2024-01-15T06:19:48;0.40;92.30
25871;DHT22;13689;48.590;7.752;2024-01-15T06:22:14;0.40;92.40
25871;DHT22;13689;48.590;7.752;2024-01-15T06:24:39;0.40;92.40
25871;DHT22;13689;48.590;7.752;2024-01-15T06:27:05;0.40;92.40
25871;DHT22;13689;48.590;7.752;2024-01-15T06:29:31;0.40;92.40
25871;DHT22;13689;48.590;7.752;2024-01-15T06:31:57;0.40;92.40
25871;DHT22;13689;48.590;7.752;2024-01-15T06:34:22;0.40;92.30
25871;DHT22;13689;48.590;7.752;2024-01-15T06:36:48;0.50;92.40
25871;DHT22;13689;48.590;7.752;2024-01-15T06:39:14;0.50;92.40
25871;DHT22;13689;48.590;7.752;2024-01-15T06:41:40;0.50;92.40
25871;DHT22;13689;48.590;7.752;2024-01-15T06:44:10;0.50;92.40
25871;DHT22;13689;48.590;7.752;2024-01-15T06:46:36;0.60;92.40
25871;DHT22;13689;48.590;7.752;2024-01-15T06:49:02;0.60;92.40
25871;DHT22;13689;48.590;7.752;2024-01-15T06:51:28;0.60;92.40
25871;DHT22;13689;48.590;7.752;2024-01-15T06:53:54;0.60;92.30
25871;DHT22;13689;48.590;7.752;2024-01-15T06:56:20;0.60;92.30
25871;DHT22;13689;48.590;7.752;2024-01-15T06:58:45;0.70;92.30
25871;DHT22;13689;48.590;7.752;2024-01-15T07:01:11;0.70;92.30
25871;DHT22;13689;48.590;7.752;2024-01-15T07:03:37;0.70;92.30
25871;DHT22;13689;48.590;7.752;2024-01-15T07:06:03;0.70;92.30
25871;DHT22;13689;48.590;7.752;2024-01-15T07:08:29;0.70;92.30
25871;DHT22;13689;48.590;7.752;2024-01-15T07:10:55;0.70;92.20
25871;DHT22;13689;48.590;7.752;2024-01-15T07:13:21;0.70;92.20
25871;DHT22;13689;48.590;7.752;2024-01-15T07:15:46;0.70;92.30
25871;DHT22;13689;48.590;7.752;2024-01-15T07:18:12;0.70;92.30
25871;DHT22;13689;48.590;7.752;2024-01-15T07:20:37;0.80;92.30
25871;DHT22;13689;48.590;7.752;2024-01-15T07:23:03;0.70;92.20
25871;DHT22;13689;48.590;7.752;2024-01-15T07:25:29;0.70;92.30
25871;DHT22;13689;48.590;7.752;2024-01-15T07:27:55;0.70;92.20
25871;DHT22;13689;48.590;7.752;2024-01-15T07:30:21;0.70;92.20
25871;DHT22;13689;48.590;7.752;2024-01-15T07:32:47;0.70;92.20
25871;DHT22;13689;48.590;7.752;2024-01-15T07:35:14;0.70;92.60
25871;DHT22;13689;48.590;7.752;2024-01-15T07:37:40;0.70;92.30
25871;DHT22;13689;48.590;7.752;2024-01-15T07:40:06;0.80;92.30
25871;DHT22;13689;48.590;7.752;2024-01-15T07:42:34;0.70;92.20
25871;DHT22;13689;48.590;7.752;2024-01-15T07:45:00;0.80;92.30
25871;DHT22;13689;48.590;7.752;2024-01-15T07:47:26;0.80;92.30
25871;DHT22;13689;48.590;7.752;2024-01-15T07:49:52;0.80;92.20
25871;DHT22;13689;48.590;7.752;2024-01-15T07:52:18;0.80;92.20
25871;DHT22;13689;48.590;7.752;2024-01-15T07:54:44;0.80;92.20
25871;DHT22;13689;48.590;7.752;2024-01-15T07:57:09;0.80;92.20
25871;DHT22;13689;48.590;7.752;2024-01-15T07:59:35;0.80;92.20
25871;DHT22;13689;48.590;7.752;2024-01-15T08:02:01;0.80;92.20
25871;DHT22;13689;48.590;7.752;2024-01-15T08:04:28;0.90;92.20
25871;DHT22;13689;48.590;7.752;2024-01-15T08:06:54;0.90;92.20
25871;DHT22;13689;48.590;7.752;2024-01-15T08:09:20;0.90;92.20
25871;DHT22;13689;48.590;7.752;2024-01-15T08:11:45;0.90;92.20
25871;DHT22;13689;48.590;7.752;2024-01-15T08:14:11;0.90;92.10
25871;DHT22;13689;48.590;7.752;2024-01-15T08:16:37;0.90;92.10
25871;DHT22;13689;48.590;7.752;2024-01-15T08:19:03;0.90;92.10
25871;DHT22;13689;48.590;7.752;2024-01-15T08:21:29;0.90;92.10
25871;DHT22;13689;48.590;7.752;2024-01-15T08:23:59;0.90;92.10
25871;DHT22;13689;48.590;7.752;2024-01-15T08:26:25;0.90;92.10
25871;DHT22;13689;48.590;7.752;2024-01-15T08:28:51;0.90;92.20
25871;DHT22;13689;48.590;7.752;2024-01-15T08:31:17;0.90;92.20
25871;DHT22;13689;48.590;7.752;2024-01-15T08:33:42;0.90;92.20
25871;DHT22;13689;48.590;7.752;2024-01-15T08:36:09;1.00;92.20
25871;DHT22;13689;48.590;7.752;2024-01-15T08:38:35;1.00;92.30
25871;DHT22;13689;48.590;7.752;2024-01-15T08:41:01;1.00;92.30
25871;DHT22;13689;48.590;7.752;2024-01-15T08:43:27;1.00;92.30
25871;DHT22;13689;48.590;7.752;2024-01-15T08:45:53;1.00;92.30
25871;DHT22;13689;48.590;7.752;2024-01-15T08:48:18;1.00;92.30
25871;DHT22;13689;48.590;7.752;2024-01-15T08:50:44;1.00;92.30
25871;DHT22;13689;48.590;7.752;2024-01-15T08:53:11;1.00;92.30
25871;DHT22;13689;48.590;7.752;2024-01-15T08:55:37;1.10;92.40
25871;DHT22;13689;48.590;7.752;2024-01-15T08:58:03;1.10;92.40
25871;DHT22;13689;48.590;7.752;2024-01-15T09:00:29;1.10;92.40
25871;DHT22;13689;48.590;7.752;2024-01-15T09:02:55;1.20;92.40
25871;DHT22;13689;48.590;7.752;2024-01-15T09:05:22;1.20;92.40
25871;DHT22;13689;48.590;7.752;2024-01-15T09:07:47;1.30;92.40
25871;DHT22;13689;48.590;7.752;2024-01-15T09:10:13;1.30;92.40
25871;DHT22;13689;48.590;7.752;2024-01-15T09:12:39;1.30;92.30
25871;DHT22;13689;48.590;7.752;2024-01-15T09:15:05;1.30;92.30
25871;DHT22;13689;48.590;7.752;2024-01-15T09:17:34;1.40;92.30
25871;DHT22;13689;48.590;7.752;2024-01-15T09:20:00;1.40;92.40
25871;DHT22;13689;48.590;7.752;2024-01-15T09:22:26;1.40;92.30
25871;DHT22;13689;48.590;7.752;2024-01-15T09:24:52;1.40;92.30
25871;DHT22;13689;48.590;7.752;2024-01-15T09:27:17;1.50;92.30
25871;DHT22;13689;48.590;7.752;2024-01-15T09:29:43;1.50;92.30
25871;DHT22;13689;48.590;7.752;2024-01-15T09:32:11;1.60;92.40
25871;DHT22;13689;48.590;7.752;2024-01-15T09:34:38;1.60;92.40
25871;DHT22;13689;48.590;7.752;2024-01-15T09:37:04;1.60;92.40
25871;DHT22;13689;48.590;7.752;2024-01-15T09:39:30;1.60;92.40
25871;DHT22;13689;48.590;7.752;2024-01-15T09:41:57;1.70;92.30
25871;DHT22;13689;48.590;7.752;2024-01-15T09:44:23;1.70;92.40
25871;DHT22;13689;48.590;7.752;2024-01-15T09:46:49;1.80;92.40
25871;DHT22;13689;48.590;7.752;2024-01-15T09:49:16;1.80;92.40
25871;DHT22;13689;48.590;7.752;2024-01-15T09:51:42;1.80;92.30
25871;DHT22;13689;48.590;7.752;2024-01-15T09:54:09;1.90;92.40
25871;DHT22;13689;48.590;7.752;2024-01-15T09:56:34;2.00;92.40
25871;DHT22;13689;48.590;7.752;2024-01-15T09:59:01;2.00;92.40
25871;DHT22;13689;48.590;7.752;2024-01-15T10:01:26;2.00;92.40
25871;DHT22;13689;48.590;7.752;2024-01-15T10:03:54;2.00;92.40
25871;DHT22;13689;48.590;7.752;2024-01-15T10:06:21;2.10;92.40
25871;DHT22;13689;48.590;7.752;2024-01-15T10:08:51;2.10;92.40
25871;DHT22;13689;48.590;7.752;2024-01-15T10:11:17;2.10;92.40
25871;DHT22;13689;48.590;7.752;2024-01-15T10:13:49;2.20;92.40
25871;DHT22;13689;48.590;7.752;2024-01-15T10:16:21;2.20;92.40
25871;DHT22;13689;48.590;7.752;2024-01-15T10:18:48;2.20;92.70
25871;DHT22;13689;48.590;7.752;2024-01-15T10:21:13;2.20;92.30
25871;DHT22;13689;48.590;7.752;2024-01-15T10:23:39;2.20;92.30
25871;DHT22;13689;48.590;7.752;2024-01-15T10:26:05;2.20;92.50
25871;DHT22;13689;48.590;7.752;2024-01-15T10:28:31;2.30;92.30
25871;DHT22;13689;48.590;7.752;2024-01-15T10:30:59;2.30;92.30
25871;DHT22;13689;48.590;7.752;2024-01-15T10:33:25;2.30;92.30
25871;DHT22;13689;48.590;7.752;2024-01-15T10:35:54;2.30;92.60
25871;DHT22;13689;48.590;7.752;2024-01-15T10:38:21;2.30;92.20
25871;DHT22;13689;48.590;7.752;2024-01-15T10:40:54;2.30;92.20
25871;DHT22;13689;48.590;7.752;2024-01-15T10:43:20;2.30;92.10
25871;DHT22;13689;48.590;7.752;2024-01-15T10:45:50;2.40;92.10
25871;DHT22;13689;48.590;7.752;2024-01-15T10:48:19;2.40;92.20
25871;DHT22;13689;48.590;7.752;2024-01-15T10:50:46;2.40;92.20
25871;DHT22;13689;48.590;7.752;2024-01-15T10:53:16;2.40;92.60
25871;DHT22;13689;48.590;7.752;2024-01-15T10:55:42;2.30;92.20
25871;DHT22;13689;48.590;7.752;2024-01-15T10:58:09;2.40;92.50
25871;DHT22;13689;48.590;7.752;2024-01-15T11:00:35;2.40;92.40
25871;DHT22;13689;48.590;7.752;2024-01-15T11:03:03;2.40;92.40
25871;DHT22;13689;48.590;7.752;2024-01-15T11:05:37;2.40;92.40
25871;DHT22;13689;48.590;7.752;2024-01-15T11:08:05;2.30;92.40
25871;DHT22;13689;48.590;7.752;2024-01-15T11:10:46;2.30;92.40
25871;DHT22;13689;48.590;7.752;2024-01-15T11:15:57;2.30;92.60
25871;DHT22;13689;48.590;7.752;2024-01-15T11:18:23;2.30;92.70
25871;DHT22;13689;48.590;7.752;2024-01-15T11:29:08;2.30;92.90
25871;DHT22;13689;48.590;7.752;2024-01-15T11:34:07;2.40;92.90
25871;DHT22;13689;48.590;7.752;2024-01-15T11:41:57;2.50;93.00
25871;DHT22;13689;48.590;7.752;2024-01-15T11:44:23;2.50;92.90
25871;DHT22;13689;48.590;7.752;2024-01-15T11:52:05;2.50;93.00
25871;DHT22;13689;48.590;7.752;2024-01-15T11:54:34;2.50;93.00
25871;DHT22;13689;48.590;7.752;2024-01-15T11:57:07;2.60;93.00
25871;DHT22;13689;48.590;7.752;2024-01-15T11:59:35;2.60;93.00
25871;DHT22;13689;48.590;7.752;2024-01-15T12:02:02;2.60;93.00
25871;DHT22;13689;48.590;7.752;2024-01-15T12:04:28;2.60;93.00
25871;DHT22;13689;48.590;7.752;2024-01-15T12:06:53;2.60;93.00
25871;DHT22;13689;48.590;7.752;2024-01-15T12:09:19;2.60;93.00
25871;DHT22;13689;48.590;7.752;2024-01-15T12:11:51;2.60;93.00
25871;DHT22;13689;48.590;7.752;2024-01-15T12:14:21;2.60;93.10
25871;DHT22;13689;48.590;7.752;2024-01-15T12:16:47;2.60;93.10
25871;DHT22;13689;48.590;7.752;2024-01-15T12:19:15;2.60;93.10
25871;DHT22;13689;48.590;7.752;2024-01-15T12:21:41;2.60;93.10
25871;DHT22;13689;48.590;7.752;2024-01-15T12:24:10;2.60;93.20
25871;DHT22;13689;48.590;7.752;2024-01-15T12:26:35;2.60;93.30
25871;DHT22;13689;48.590;7.752;2024-01-15T12:29:02;2.60;93.30
25871;DHT22;13689;48.590;7.752;2024-01-15T12:31:29;2.60;93.30
25871;DHT22;13689;48.590;7.752;2024-01-15T12:33:56;2.60;93.40
25871;DHT22;13689;48.590;7.752;2024-01-15T12:36:21;2.60;93.40
25871;DHT22;13689;48.590;7.752;2024-01-15T12:38:47;2.60;93.50
25871;DHT22;13689;48.590;7.752;2024-01-15T12:41:13;2.60;93.50
25871;DHT22;13689;48.590;7.752;2024-01-15T12:43:39;2.60;93.50
25871;DHT22;13689;48.590;7.752;2024-01-15T12:46:06;2.60;93.60
25871;DHT22;13689;48.590;7.752;2024-01-15T12:48:31;2.60;93.60
25871;DHT22;13689;48.590;7.752;2024-01-15T12:50:57;2.60;93.60
25871;DHT22;13689;48.590;7.752;2024-01-15T12:53:22;2.60;93.60
25871;DHT22;13689;48.590;7.752;2024-01-15T12:55:48;2.70;93.70
25871;DHT22;13689;48.590;7.752;2024-01-15T12:58:13;2.70;93.70
25871;DHT22;13689;48.590;7.752;2024-01-15T13:00:39;2.70;93.80
25871;DHT22;13689;48.590;7.752;2024-01-15T13:03:05;2.70;93.80
25871;DHT22;13689;48.590;7.752;2024-01-15T13:05:31;2.70;93.80
25871;DHT22;13689;48.590;7.752;2024-01-15T13:07:59;2.70;93.80
25871;DHT22;13689;48.590;7.752;2024-01-15T13:10:24;2.70;93.80
25871;DHT22;13689;48.590;7.752;2024-01-15T13:12:50;2.70;93.90
25871;DHT22;13689;48.590;7.752;2024-01-15T13:15:16;2.70;94.00
25871;DHT22;13689;48.590;7.752;2024-01-15T13:17:42;2.70;94.00
25871;DHT22;13689;48.590;7.752;2024-01-15T13:20:08;2.70;94.00
25871;DHT22;13689;48.590;7.752;2024-01-15T13:22:34;2.70;94.10
25871;DHT22;13689;48.590;7.752;2024-01-15T13:25:00;2.60;94.10
25871;DHT22;13689;48.590;7.752;2024-01-15T13:27:26;2.60;94.10
25871;DHT22;13689;48.590;7.752;2024-01-15T13:29:51;2.60;94.20
25871;DHT22;13689;48.590;7.752;2024-01-15T13:32:28;2.60;94.20
25871;DHT22;13689;48.590;7.752;2024-01-15T13:34:57;2.60;94.30
25871;DHT22;13689;48.590;7.752;2024-01-15T13:37:23;2.60;94.30
25871;DHT22;13689;48.590;7.752;2024-01-15T13:39:51;2.60;94.30
25871;DHT22;13689;48.590;7.752;2024-01-15T13:42:18;2.60;94.40
25871;DHT22;13689;48.590;7.752;2024-01-15T13:44:43;2.60;94.40
25871;DHT22;13689;48.590;7.752;2024-01-15T13:47:09;2.60;94.50
25871;DHT22;13689;48.590;7.752;2024-01-15T13:49:35;2.60;94.50
25871;DHT22;13689;48.590;7.752;2024-01-15T13:52:02;2.60;94.50
25871;DHT22;13689;48.590;7.752;2024-01-15T13:54:29;2.70;94.50
25871;DHT22;13689;48.590;7.752;2024-01-15T13:56:55;2.70;94.60
25871;DHT22;13689;48.590;7.752;2024-01-15T13:59:21;2.70;94.60
25871;DHT22;13689;48.590;7.752;2024-01-15T14:01:46;2.70;94.60
25871;DHT22;13689;48.590;7.752;2024-01-15T14:04:12;2.70;94.60
25871;DHT22;13689;48.590;7.752;2024-01-15T14:06:38;2.70;94.70
25871;DHT22;13689;48.590;7.752;2024-01-15T14:09:04;2.70;94.70
25871;DHT22;13689;48.590;7.752;2024-01-15T14:11:30;2.70;94.80
25871;DHT22;13689;48.590;7.752;2024-01-15T14:13:56;2.70;94.90
25871;DHT22;13689;48.590;7.752;2024-01-15T14:16:22;2.70;94.90
25871;DHT22;13689;48.590;7.752;2024-01-15T14:18:48;2.70;95.00
25871;DHT22;13689;48.590;7.752;2024-01-15T14:21:13;2.70;95.00
25871;DHT22;13689;48.590;7.752;2024-01-15T14:23:39;2.70;95.10
25871;DHT22;13689;48.590;7.752;2024-01-15T14:26:05;2.70;95.10
25871;DHT22;13689;48.590;7.752;2024-01-15T14:28:31;2.80;95.10
25871;DHT22;13689;48.590;7.752;2024-01-15T14:30:57;2.80;95.20
25871;DHT22;13689;48.590;7.752;2024-01-15T14:33:26;2.80;95.20
25871;DHT22;13689;48.590;7.752;2024-01-15T14:35:52;2.80;95.20
25871;DHT22;13689;48.590;7.752;2024-01-15T14:38:18;2.80;95.20
25871;DHT22;13689;48.590;7.752;2024-01-15T14:40:43;2.80;95.20
25871;DHT22;13689;48.590;7.752;2024-01-15T14:43:10;2.80;95.30
25871;DHT22;13689;48.590;7.752;2024-01-15T14:45:35;2.80;95.30
25871;DHT22;13689;48.590;7.752;2024-01-15T14:48:01;2.80;95.20
25871;DHT22;13689;48.590;7.752;2024-01-15T14:50:27;2.80;95.20
25871;DHT22;13689;48.590;7.752;2024-01-15T14:52:52;2.80;95.20
25871;DHT22;13689;48.590;7.752;2024-01-15T14:55:18;2.80;95.20
25871;DHT22;13689;48.590;7.752;2024-01-15T14:57:43;2.80;95.20
25871;DHT22;13689;48.590;7.752;2024-01-15T15:00:09;2.80;95.10
25871;DHT22;13689;48.590;7.752;2024-01-15T15:02:35;2.80;95.10
25871;DHT22;13689;48.590;7.752;2024-01-15T15:05:02;2.80;95.10
25871;DHT22;13689;48.590;7.752;2024-01-15T15:07:28;2.80;95.00
25871;DHT22;13689;48.590;7.752;2024-01-15T15:09:54;2.80;95.00
25871;DHT22;13689;48.590;7.752;2024-01-15T15:12:19;2.70;94.90
25871;DHT22;13689;48.590;7.752;2024-01-15T15:14:45;2.80;95.00
25871;DHT22;13689;48.590;7.752;2024-01-15T15:17:10;2.80;94.90
25871;DHT22;13689;48.590;7.752;2024-01-15T15:19:37;2.80;94.90
25871;DHT22;13689;48.590;7.752;2024-01-15T15:22:03;2.80;94.80
25871;DHT22;13689;48.590;7.752;2024-01-15T15:24:29;2.70;94.70
25871;DHT22;13689;48.590;7.752;2024-01-15T15:26:54;2.80;94.80
25871;DHT22;13689;48.590;7.752;2024-01-15T15:29:20;2.80;94.70
25871;DHT22;13689;48.590;7.752;2024-01-15T15:31:47;2.80;94.70
25871;DHT22;13689;48.590;7.752;2024-01-15T15:34:14;2.80;94.60
25871;DHT22;13689;48.590;7.752;2024-01-15T15:36:40;2.80;94.60
25871;DHT22;13689;48.590;7.752;2024-01-15T15:39:06;2.80;94.60
25871;DHT22;13689;48.590;7.752;2024-01-15T15:41:32;2.80;94.50
25871;DHT22;13689;48.590;7.752;2024-01-15T15:43:57;2.80;94.50
25871;DHT22;13689;48.590;7.752;2024-01-15T15:46:23;2.80;94.50
25871;DHT22;13689;48.590;7.752;2024-01-15T15:48:49;2.70;94.40
25871;DHT22;13689;48.590;7.752;2024-01-15T15:51:14;2.70;94.70
25871;DHT22;13689;48.590;7.752;2024-01-15T15:53:40;2.70;94.40
25871;DHT22;13689;48.590;7.752;2024-01-15T15:56:06;2.70;94.30
25871;DHT22;13689;48.590;7.752;2024-01-15T15:58:32;2.60;94.20
25871;DHT22;13689;48.590;7.752;2024-01-15T16:00:58;2.60;94.30